Time;durP1;ratioP1;P1;durP2;ratioP2;P2;SDS_P1;SDS_P2;PMS_P1;PMS_P2;Temp;Humidity;BMP_temperature;BMP_pressure;BME280_temperature;BME280_humidity;BME280_pressure;Samples;Min_cycle;Max_cycle;Signal;HPM_P1;HPM_P2
2021/08/08 00:01:48;;;;;;;7.60;3.83;;;;;;;20.41;54.34;101087.28;4992038;28;20188;-67
2021/08/08 00:04:13;;;;;;;8.90;3.90;;;;;;;19.91;54.19;101020.94;4992089;28;20169;-66
2021/08/08 00:06:40;;;;;;;5.40;3.60;;;;;;;20.41;53.99;101090.84;4997266;28;20713;-66
2021/08/08 00:09:05;;;;;;;7.00;3.10;;;;;;;20.37;54.42;101093.06;5015176;28;20173;-66
2021/08/08 00:11:31;;;;;;;7.03;3.60;;;;;;;19.94;54.17;101034.03;5021650;28;20234;-66
2021/08/08 00:13:56;;;;;;;5.53;3.10;;;;;;;20.35;53.76;101090.00;5011361;28;20375;-66
2021/08/08 00:16:22;;;;;;;5.27;3.03;;;;;;;20.27;54.01;101088.06;5012545;28;20206;-66
2021/08/08 00:18:47;;;;;;;11.33;3.10;;;;;;;19.71;53.85;101001.19;5011499;28;20236;-66
2021/08/08 00:21:13;;;;;;;5.37;2.83;;;;;;;20.27;54.12;101099.31;5011583;28;20669;-67
2021/08/08 00:23:38;;;;;;;7.47;3.50;;;;;;;20.07;54.36;101105.63;5011192;28;20650;-67
2021/08/08 00:26:04;;;;;;;5.20;3.30;;;;;;;19.87;54.45;101097.09;5011059;28;20241;-67
2021/08/08 00:28:29;;;;;;;5.77;3.37;;;;;;;19.90;54.47;101115.03;5011255;28;20186;-66
2021/08/08 00:30:54;;;;;;;5.50;2.57;;;;;;;19.91;54.76;101111.72;5011095;28;20266;-66
2021/08/08 00:33:20;;;;;;;10.23;3.80;;;;;;;19.96;54.65;101119.47;5010901;28;20208;-66
2021/08/08 00:35:45;;;;;;;6.87;3.17;;;;;;;19.96;54.80;101115.91;5011191;28;20778;-66
2021/08/08 00:38:11;;;;;;;8.40;3.00;;;;;;;19.91;54.97;101136.28;5011510;28;20189;-66
2021/08/08 00:40:36;;;;;;;4.80;2.90;;;;;;;19.85;54.91;101108.03;5010887;28;20175;-66
2021/08/08 00:43:02;;;;;;;6.10;2.83;;;;;;;19.19;55.01;101016.81;5011270;28;20252;-66
2021/08/08 00:45:28;;;;;;;7.47;3.20;;;;;;;19.58;55.18;101087.84;5010785;28;20171;-67
2021/08/08 00:47:54;;;;;;;5.33;2.97;;;;;;;19.75;55.22;101111.44;5011344;28;20179;-66
2021/08/08 00:50:19;;;;;;;8.20;2.90;;;;;;;19.73;55.40;101116.75;5011195;28;20669;-69
2021/08/08 00:52:45;;;;;;;4.27;2.80;;;;;;;19.64;55.77;101114.81;5011100;28;20237;-66
2021/08/08 00:55:11;;;;;;;5.80;2.73;;;;;;;19.58;55.94;101113.94;5011137;28;20183;-66
2021/08/08 00:57:37;;;;;;;4.77;2.20;;;;;;;19.48;55.98;101106.03;5011170;28;20273;-67
2021/08/08 01:00:05;;;;;;;4.83;2.93;;;;;;;19.57;56.03;101115.19;5010617;28;20260;-66
2021/08/08 01:02:34;;;;;;;5.20;2.80;;;;;;;19.57;55.91;101114.41;5010977;28;20649;-66
2021/08/08 01:05:09;;;;;;;8.10;2.87;;;;;;;19.54;55.78;101121.00;5010455;28;20185;-66
2021/08/08 01:07:43;;;;;;;7.53;3.00;;;;;;;19.14;55.41;101068.06;5010827;28;20216;-66
2021/08/08 01:10:09;;;;;;;8.67;3.13;;;;;;;19.42;55.77;101114.38;5010426;28;20188;-66
2021/08/08 01:12:38;;;;;;;5.13;2.60;;;;;;;19.43;55.91;101130.00;5028957;28;20193;-66
2021/08/08 01:15:04;;;;;;;4.80;2.30;;;;;;;19.31;56.05;101116.19;5015418;28;20656;-66
2021/08/08 01:17:30;;;;;;;6.20;2.70;;;;;;;19.24;56.53;101127.81;5010471;28;20177;-66
2021/08/08 01:20:03;;;;;;;5.50;2.33;;;;;;;19.30;56.32;101134.31;5010778;28;20191;-66
2021/08/08 01:22:31;;;;;;;5.10;2.43;;;;;;;19.35;56.25;101144.88;5010982;28;20790;-66
2021/08/08 01:24:58;;;;;;;7.07;2.73;;;;;;;19.30;56.53;101140.69;4992975;28;20191;-66
2021/08/08 01:27:24;;;;;;;5.50;2.87;;;;;;;19.34;56.43;101141.28;5010501;28;20183;-66
2021/08/08 01:29:52;;;;;;;9.37;2.50;;;;;;;18.60;56.19;101012.28;5010607;28;20260;-66
2021/08/08 01:32:17;;;;;;;6.87;2.20;;;;;;;19.05;56.13;101065.34;5010175;28;20186;-67
2021/08/08 01:34:43;;;;;;;4.93;2.80;;;;;;;19.47;55.55;101149.47;5010577;28;20660;-66
2021/08/08 01:37:08;;;;;;;4.83;2.10;;;;;;;19.25;55.93;101157.44;5012395;28;20662;-66
2021/08/08 01:39:35;;;;;;;5.10;2.13;;;;;;;19.15;56.27;101173.56;5014634;28;20185;-66
2021/08/08 01:42:05;;;;;;;3.83;2.00;;;;;;;18.68;56.33;101111.72;5014227;28;20193;-66
2021/08/08 01:44:35;;;;;;;3.23;1.80;;;;;;;19.00;56.32;101172.72;5014655;28;20173;-66
2021/08/08 01:47:01;;;;;;;5.23;2.17;;;;;;;18.49;56.70;101093.44;5014132;28;20558;-66
2021/08/08 01:49:30;;;;;;;4.43;1.73;;;;;;;19.05;56.73;101172.06;4997010;28;20201;-66
2021/08/08 01:51:58;;;;;;;2.67;1.73;;;;;;;19.02;56.48;101170.22;5013864;28;20208;-66
2021/08/08 01:54:25;;;;;;;4.53;2.00;;;;;;;18.66;56.60;101131.09;5014346;28;20173;-67
2021/08/08 01:56:51;;;;;;;6.60;1.70;;;;;;;18.98;56.95;101174.47;5014212;28;20593;-66
2021/08/08 01:59:17;;;;;;;5.03;1.93;;;;;;;19.00;56.72;101171.94;5014272;28;20694;-66
2021/08/08 02:01:43;;;;;;;3.30;1.70;;;;;;;18.56;56.32;101104.31;5013641;28;20187;-66
2021/08/08 02:04:25;;;;;;;2.97;2.00;;;;;;;19.09;56.29;101166.28;4996774;28;20260;-66
2021/08/08 02:06:51;;;;;;;8.37;2.20;;;;;;;18.56;55.94;101084.66;4996067;28;20236;-69
2021/08/08 02:09:17;;;;;;;6.20;2.17;;;;;;;19.04;56.40;101173.31;5019210;28;20258;-66
2021/08/08 02:11:42;;;;;;;9.60;2.10;;;;;;;18.55;56.80;101116.81;4996299;28;20220;-66
2021/08/08 02:14:08;;;;;;;3.77;1.80;;;;;;;19.01;56.81;101179.09;5014270;28;20186;-66
2021/08/08 02:16:34;;;;;;;2.77;1.77;;;;;;;19.08;56.80;101187.19;5014213;28;20177;-66
2021/08/08 02:19:00;;;;;;;5.17;1.93;;;;;;;19.15;56.54;101176.38;5013728;28;20658;-66
2021/08/08 02:21:26;;;;;;;4.43;2.30;;;;;;;18.88;56.14;101128.78;5013820;28;20261;-66
2021/08/08 02:23:52;;;;;;;4.77;2.17;;;;;;;18.65;56.33;101089.47;5013483;28;20184;-66
2021/08/08 02:26:18;;;;;;;7.47;2.00;;;;;;;18.96;56.12;101134.81;5014234;28;20178;-66
2021/08/08 02:28:43;;;;;;;5.83;2.13;;;;;;;19.25;56.20;101169.44;5013415;28;20190;-66
2021/08/08 02:31:11;;;;;;;4.33;1.80;;;;;;;18.65;56.10;101076.22;5013434;28;20181;-66
2021/08/08 02:33:36;;;;;;;4.57;2.07;;;;;;;19.28;56.14;101157.28;5013146;28;20580;-66
2021/08/08 02:36:02;;;;;;;5.93;2.10;;;;;;;18.69;56.05;101067.59;5013861;28;20189;-66
2021/08/08 02:38:27;;;;;;;2.47;1.70;;;;;;;18.95;55.09;101120.03;5013141;28;20189;-66
2021/08/08 02:40:53;;;;;;;3.37;1.93;;;;;;;19.27;55.34;101171.78;5013475;28;20224;-66
2021/08/08 02:43:18;;;;;;;2.73;1.93;;;;;;;18.83;55.64;101121.00;5012976;28;20571;-66
2021/08/08 02:45:49;;;;;;;4.90;2.20;;;;;;;19.09;55.54;101175.47;5013694;28;20243;-66
2021/08/08 02:48:15;;;;;;;5.17;2.37;;;;;;;19.00;55.86;101175.53;5012737;28;20197;-66
2021/08/08 02:50:41;;;;;;;7.60;2.40;;;;;;;18.96;55.73;101182.56;5003941;28;20621;-66
2021/08/08 02:53:06;;;;;;;4.40;2.47;;;;;;;18.37;56.03;101102.84;5012768;28;20204;-66
2021/08/08 02:55:32;;;;;;;6.57;2.70;;;;;;;18.78;56.12;101186.25;5012129;28;20229;-66
2021/08/08 02:57:57;;;;;;;4.67;2.50;;;;;;;18.67;56.42;101197.22;5013411;28;20184;-66
2021/08/08 03:00:23;;;;;;;7.83;3.30;;;;;;;18.63;56.65;101205.03;5012833;28;20184;-66
2021/08/08 03:02:48;;;;;;;5.43;2.73;;;;;;;18.48;56.76;101186.53;5013173;28;20251;-66
2021/08/08 03:05:14;;;;;;;4.67;2.90;;;;;;;18.54;56.74;101207.09;5012509;28;20610;-66
2021/08/08 03:07:39;;;;;;;4.10;2.63;;;;;;;18.38;57.12;101213.81;4995344;28;20276;-66
2021/08/08 03:10:06;;;;;;;9.03;3.20;;;;;;;18.24;57.74;101211.66;5012393;28;20181;-66
2021/08/08 03:12:31;;;;;;;10.30;3.57;;;;;;;18.08;57.90;101219.63;5030546;28;20197;-66
2021/08/08 03:14:57;;;;;;;15.50;3.90;;;;;;;17.98;58.46;101218.88;5000387;28;20255;-66
2021/08/08 03:17:22;;;;;;;13.27;3.63;;;;;;;17.60;58.29;101170.16;5013019;28;20180;-66
2021/08/08 03:19:48;;;;;;;11.67;3.30;;;;;;;17.88;58.92;101223.69;4994816;28;20185;-66
2021/08/08 03:22:13;;;;;;;14.93;3.57;;;;;;;17.78;59.13;101222.13;5013028;28;20181;-66
2021/08/08 03:24:39;;;;;;;9.63;3.10;;;;;;;17.71;59.30;101235.69;5012211;28;20192;-66
2021/08/08 03:27:04;;;;;;;5.53;2.77;;;;;;;17.57;59.53;101236.31;5012546;28;20233;-66
2021/08/08 03:29:30;;;;;;;6.60;2.77;;;;;;;17.57;59.88;101233.50;5012542;28;20251;-66
2021/08/08 03:31:55;;;;;;;7.83;3.13;;;;;;;17.53;59.95;101241.28;5012265;28;20276;-66
2021/08/08 03:34:21;;;;;;;6.20;2.63;;;;;;;17.47;59.92;101233.94;5012243;28;20559;-66
2021/08/08 03:36:46;;;;;;;10.30;3.20;;;;;;;17.22;60.07;101195.75;4994998;28;20654;-66
2021/08/08 03:39:12;;;;;;;6.17;2.50;;;;;;;17.61;59.90;101245.31;5012769;28;20239;-66
2021/08/08 03:41:37;;;;;;;11.70;3.73;;;;;;;17.66;59.65;101244.72;5011448;28;20654;-66
2021/08/08 03:44:03;;;;;;;23.50;4.20;;;;;;;17.71;59.41;101235.69;5012052;28;20181;-66
2021/08/08 03:46:28;;;;;;;10.70;3.50;;;;;;;17.26;59.54;101157.94;5012109;28;20270;-66
2021/08/08 03:48:54;;;;;;;14.33;3.57;;;;;;;17.09;59.66;101137.06;4994911;28;20219;-66
2021/08/08 03:51:19;;;;;;;6.57;2.80;;;;;;;17.86;59.40;101241.47;5011530;28;20675;-66
2021/08/08 03:53:45;;;;;;;8.03;2.50;;;;;;;17.94;59.24;101243.47;5012004;28;20201;-66
2021/08/08 03:56:10;;;;;;;4.47;2.30;;;;;;;18.04;59.04;101242.22;5011916;28;20174;-66
2021/08/08 03:58:36;;;;;;;8.63;2.50;;;;;;;18.14;58.82;101235.38;5012213;28;20178;-66
2021/08/08 04:01:02;;;;;;;3.20;2.00;;;;;;;18.20;58.67;101244.72;5010300;28;20188;-66
2021/08/08 04:03:31;;;;;;;4.37;2.30;;;;;;;18.21;58.35;101242.69;5011965;28;20243;-66
2021/08/08 04:05:57;;;;;;;7.83;2.47;;;;;;;18.28;58.25;101252.31;5011604;28;20180;-66
2021/08/08 04:08:23;;;;;;;5.80;2.30;;;;;;;17.96;57.83;101192.53;5011990;28;20283;-66
2021/08/08 04:10:48;;;;;;;3.57;2.37;;;;;;;18.14;57.78;101227.72;5014983;28;20208;-66
2021/08/08 04:13:14;;;;;;;3.80;2.20;;;;;;;18.35;57.84;101253.28;5030849;28;20587;-66
2021/08/08 04:15:39;;;;;;;6.67;2.60;;;;;;;17.92;57.85;101192.72;5011375;28;20192;-66
2021/08/08 04:18:05;;;;;;;5.70;2.70;;;;;;;17.87;57.79;101172.91;5011924;28;20173;-66
2021/08/08 04:20:30;;;;;;;5.37;2.40;;;;;;;18.29;57.77;101242.66;4994208;28;20666;-66
2021/08/08 04:22:56;;;;;;;6.80;2.63;;;;;;;18.38;57.77;101269.94;5011389;28;20188;-66
2021/08/08 04:25:21;;;;;;;4.23;2.50;;;;;;;18.25;58.38;101266.53;5011062;28;20182;-66
2021/08/08 04:27:47;;;;;;;5.40;2.90;;;;;;;18.31;58.47;101261.06;5011602;28;20177;-66
2021/08/08 04:30:12;;;;;;;4.83;3.00;;;;;;;18.37;58.58;101276.06;5011507;28;20181;-66
2021/08/08 04:32:37;;;;;;;8.07;3.33;;;;;;;18.34;58.95;101280.56;5010970;28;20710;-66
2021/08/08 04:35:03;;;;;;;5.33;3.00;;;;;;;18.33;59.57;101273.41;4993855;28;20178;-66
2021/08/08 04:37:29;;;;;;;4.57;3.00;;;;;;;18.19;58.71;101251.56;5010950;28;20201;-66
2021/08/08 04:39:54;;;;;;;6.80;2.87;;;;;;;18.52;58.88;101282.56;5011293;28;20177;-66
2021/08/08 04:42:20;;;;;;;5.87;2.90;;;;;;;18.29;58.52;101245.47;5010986;28;20260;-66
2021/08/08 04:44:45;;;;;;;8.23;3.10;;;;;;;18.76;58.35;101286.25;5011264;28;20178;-66
2021/08/08 04:47:11;;;;;;;6.60;2.90;;;;;;;18.80;58.49;101290.47;5010874;28;20249;-66
2021/08/08 04:49:36;;;;;;;6.87;2.87;;;;;;;18.90;58.41;101299.63;5011259;28;20731;-66
2021/08/08 04:52:02;;;;;;;4.50;2.10;;;;;;;18.98;58.04;101298.03;5010646;28;20308;-66
2021/08/08 04:54:28;;;;;;;8.17;3.00;;;;;;;18.56;57.63;101210.19;5010840;28;20173;-66
2021/08/08 04:56:54;;;;;;;6.33;3.07;;;;;;;19.31;57.51;101310.88;5010695;28;20189;-66
2021/08/08 04:59:19;;;;;;;4.80;2.80;;;;;;;19.42;57.28;101302.72;4993561;28;20173;-66
2021/08/08 05:01:45;;;;;;;4.23;2.60;;;;;;;19.58;57.19;101312.75;4993231;28;20182;-66
2021/08/08 05:04:10;;;;;;;7.33;2.87;;;;;;;19.67;56.91;101307.06;5010576;28;20200;-66
2021/08/08 05:06:36;;;;;;;8.13;3.20;;;;;;;19.86;56.76;101322.59;5010304;28;20267;-66
2021/08/08 05:09:04;;;;;;;5.73;2.87;;;;;;;20.00;56.64;101316.25;5014132;28;20201;-66
2021/08/08 05:11:31;;;;;;;4.90;3.00;;;;;;;20.08;56.34;101318.22;5020369;28;20199;-66
2021/08/08 05:13:57;;;;;;;5.87;3.00;;;;;;;20.25;56.51;101322.16;4992808;28;20215;-66
2021/08/08 05:16:23;;;;;;;5.33;3.00;;;;;;;20.41;56.80;101323.75;5011039;28;20185;-66
2021/08/08 05:18:48;;;;;;;6.63;2.70;;;;;;;20.37;56.26;101290.13;5010475;28;20193;-66
2021/08/08 05:21:14;;;;;;;5.23;2.67;;;;;;;20.69;55.77;101322.19;5010548;28;20645;-67
2021/08/08 05:23:39;;;;;;;3.70;2.70;;;;;;;20.12;55.46;101211.13;4992595;28;20232;-66
2021/08/08 05:26:05;;;;;;;8.27;3.00;;;;;;;21.00;55.01;101319.69;5010461;28;20694;-66
2021/08/08 05:28:31;;;;;;;7.70;3.40;;;;;;;20.81;55.41;101270.41;5010746;28;20182;-66
2021/08/08 05:30:56;;;;;;;5.43;2.63;;;;;;;21.18;54.37;101317.44;4992689;28;20186;-66
2021/08/08 05:33:22;;;;;;;6.00;2.97;;;;;;;20.88;54.31;101245.44;5010257;28;20209;-66
2021/08/08 05:35:48;;;;;;;7.80;2.90;;;;;;;21.52;54.43;101319.50;5010490;28;20173;-66
2021/08/08 05:38:14;;;;;;;4.27;2.40;;;;;;;21.67;52.77;101325.06;5010344;28;20186;-66
2021/08/08 05:40:39;;;;;;;4.30;2.60;;;;;;;21.40;52.06;101269.81;5010339;28;20180;-66
2021/08/08 05:43:05;;;;;;;6.40;2.70;;;;;;;21.97;52.45;101332.97;5010219;28;20601;-66
2021/08/08 05:45:30;;;;;;;7.87;3.00;;;;;;;21.45;52.11;101240.16;5010334;28;20206;-67
2021/08/08 05:47:57;;;;;;;7.53;3.10;;;;;;;22.17;51.97;101316.03;5009972;28;20300;-66
2021/08/08 05:50:22;;;;;;;5.07;2.70;;;;;;;22.40;51.85;101329.09;5010500;28;20272;-66
2021/08/08 05:52:49;;;;;;;4.60;2.60;;;;;;;22.38;51.69;101309.06;5010477;28;20288;-66
2021/08/08 05:55:16;;;;;;;5.87;3.00;;;;;;;22.67;51.58;101333.53;4992415;28;20546;-67
2021/08/08 05:57:42;;;;;;;6.33;2.73;;;;;;;22.34;52.07;101279.47;5010700;28;20182;-67
2021/08/08 06:00:08;;;;;;;4.80;2.63;;;;;;;22.85;51.70;101330.34;5009755;28;20177;-67
2021/08/08 06:02:33;;;;;;;5.77;2.60;;;;;;;22.49;51.31;101247.06;5010248;28;20174;-66
2021/08/08 06:04:59;;;;;;;6.80;3.20;;;;;;;23.11;50.15;101331.88;5009982;28;20216;-66
2021/08/08 06:07:24;;;;;;;7.30;3.20;;;;;;;23.17;50.04;101324.19;5009988;28;20240;-67
2021/08/08 06:09:50;;;;;;;7.93;3.80;;;;;;;23.25;49.63;101311.19;5002360;28;20281;-66
2021/08/08 06:12:15;;;;;;;7.37;3.90;;;;;;;23.46;49.73;101326.78;5008612;28;20213;-67
2021/08/08 06:14:41;;;;;;;9.77;4.13;;;;;;;23.58;48.49;101330.41;5009723;28;20192;-66
2021/08/08 06:17:06;;;;;;;8.50;4.27;;;;;;;23.64;48.54;101322.75;5012136;28;20251;-67
2021/08/08 06:19:32;;;;;;;10.67;4.33;;;;;;;23.80;48.28;101328.50;5008454;28;20182;-66
2021/08/08 06:21:57;;;;;;;7.93;4.53;;;;;;;23.90;48.29;101332.69;5009369;28;20181;-67
2021/08/08 06:24:23;;;;;;;8.63;6.10;;;;;;;23.88;46.02;101338.06;5011610;28;20572;-67
2021/08/08 06:26:49;;;;;;;13.13;6.30;;;;;;;23.74;45.28;101307.13;5011671;28;20185;-67
2021/08/08 06:29:14;;;;;;;12.43;6.60;;;;;;;23.88;45.00;101320.28;5020282;28;20184;-67
2021/08/08 06:31:40;;;;;;;8.17;6.07;;;;;;;23.80;45.52;101283.22;5011838;28;20186;-67
2021/08/08 06:34:05;;;;;;;9.97;6.20;;;;;;;24.02;45.28;101328.66;5029642;28;20264;-67
2021/08/08 06:36:31;;;;;;;13.37;6.00;;;;;;;24.28;45.43;101342.63;5031864;28;20184;-67
2021/08/08 06:38:58;;;;;;;10.53;5.90;;;;;;;24.43;44.71;101343.97;5025607;28;20177;-67
2021/08/08 06:41:24;;;;;;;7.87;4.83;;;;;;;24.54;44.87;101344.00;5015199;28;20186;-67
2021/08/08 06:43:50;;;;;;;10.20;4.70;;;;;;;24.63;44.52;101349.47;5018356;28;20180;-67
2021/08/08 06:46:15;;;;;;;8.70;4.43;;;;;;;24.61;45.00;101335.03;5021813;28;20185;-66
2021/08/08 06:48:41;;;;;;;10.23;4.93;;;;;;;24.47;44.87;101330.31;5021493;28;20715;-67
2021/08/08 06:51:06;;;;;;;6.00;4.33;;;;;;;24.28;45.00;101305.81;5016412;28;20185;-67
2021/08/08 06:53:32;;;;;;;8.33;4.90;;;;;;;24.77;44.77;101344.84;5019778;28;20267;-67
2021/08/08 06:56:01;;;;;;;8.47;5.20;;;;;;;24.91;44.92;101338.94;5019928;28;20203;-67
2021/08/08 06:59:17;;;;;;;11.63;5.40;;;;;;;25.03;43.92;101351.06;5014606;28;20500;-67
2021/08/08 07:01:42;;;;;;;7.63;5.03;;;;;;;25.16;43.90;101337.13;5000286;28;20189;-67
2021/08/08 07:04:09;;;;;;;11.00;5.60;;;;;;;25.27;43.77;101351.31;5025528;28;20638;-67
2021/08/08 07:06:34;;;;;;;12.30;5.30;;;;;;;25.36;43.79;101354.69;5012161;28;20286;-67
2021/08/08 07:09:01;;;;;;;8.23;5.07;;;;;;;25.41;43.28;101336.88;4992311;28;20548;-67
2021/08/08 07:11:26;;;;;;;10.40;5.93;;;;;;;25.29;43.26;101297.69;4990965;28;20182;-67
2021/08/08 07:13:52;;;;;;;12.37;5.40;;;;;;;25.56;42.90;101331.69;4991123;28;20214;-67
2021/08/08 07:16:17;;;;;;;10.00;5.73;;;;;;;25.34;43.26;101294.84;4992044;28;20648;-67
2021/08/08 07:18:43;;;;;;;9.73;5.10;;;;;;;25.70;43.35;101344.06;4990118;28;20201;-67
2021/08/08 07:21:09;;;;;;;9.63;5.00;;;;;;;25.64;43.43;101346.13;4995378;28;20182;-67
2021/08/08 07:23:35;;;;;;;9.00;4.73;;;;;;;25.74;43.19;101345.31;4977048;28;20178;-67
2021/08/08 07:26:01;;;;;;;11.03;5.33;;;;;;;25.86;42.53;101344.00;4993875;28;20179;-67
2021/08/08 07:28:27;;;;;;;11.33;5.10;;;;;;;25.97;42.31;101346.84;4991496;28;20269;-67
2021/08/08 07:30:52;;;;;;;9.60;5.13;;;;;;;25.84;42.56;101348.66;4986089;28;20606;-67
2021/08/08 07:33:18;;;;;;;8.07;5.33;;;;;;;25.81;42.82;101353.31;4978261;28;20273;-67
2021/08/08 07:35:44;;;;;;;9.17;4.53;;;;;;;26.00;43.07;101351.47;4992392;28;20186;-67
2021/08/08 07:38:09;;;;;;;13.73;5.50;;;;;;;25.94;44.12;101347.88;5002345;28;20197;-67
2021/08/08 07:40:36;;;;;;;11.73;5.40;;;;;;;26.14;43.67;101347.53;5005899;28;20198;-67
2021/08/08 07:43:02;;;;;;;8.13;4.73;;;;;;;26.08;43.20;101324.06;4974271;28;20265;-67
2021/08/08 07:45:27;;;;;;;10.67;5.10;;;;;;;26.25;43.67;101352.41;4980813;28;20616;-67
2021/08/08 07:47:53;;;;;;;13.00;4.90;;;;;;;26.28;43.32;101334.31;4991566;28;20206;-67
2021/08/08 07:50:18;;;;;;;12.20;5.13;;;;;;;26.52;42.94;101354.31;4992042;28;20248;-67
2021/08/08 07:52:44;;;;;;;9.60;5.43;;;;;;;26.57;42.81;101359.25;4987236;28;20221;-67
2021/08/08 07:55:10;;;;;;;8.23;5.00;;;;;;;26.57;42.31;101330.81;5002183;28;20186;-67
2021/08/08 07:57:36;;;;;;;9.23;4.73;;;;;;;26.34;42.35;101284.66;4997078;28;20671;-67
2021/08/08 08:00:05;;;;;;;8.80;5.07;;;;;;;26.87;42.27;101352.31;4994314;28;20186;-67
2021/08/08 08:02:31;;;;;;;11.83;4.80;;;;;;;26.39;41.93;101300.13;4995670;28;20612;-67
2021/08/08 08:04:57;;;;;;;13.37;5.00;;;;;;;26.02;42.17;101254.38;4999071;28;20300;-67
2021/08/08 08:07:22;;;;;;;9.70;4.63;;;;;;;26.77;41.93;101344.63;5001971;28;20234;-67
2021/08/08 08:09:48;;;;;;;12.10;4.97;;;;;;;26.51;41.90;101295.94;5009235;28;20675;-67
2021/08/08 08:12:13;;;;;;;9.10;4.47;;;;;;;26.94;41.26;101346.06;4987950;28;20210;-67
2021/08/08 08:14:39;;;;;;;7.90;4.73;;;;;;;27.21;40.61;101352.84;5000292;28;20280;-67
2021/08/08 08:17:04;;;;;;;7.63;4.50;;;;;;;27.38;40.60;101359.16;5004563;28;20850;-67
2021/08/08 08:19:30;;;;;;;9.90;4.40;;;;;;;27.26;40.33;101304.44;5009719;28;20177;-67
2021/08/08 08:21:56;;;;;;;10.27;4.57;;;;;;;27.66;40.46;101359.66;5004676;28;20189;-67
2021/08/08 08:24:21;;;;;;;9.50;4.60;;;;;;;27.78;39.52;101358.22;4989167;28;20759;-67
2021/08/08 08:26:47;;;;;;;9.50;4.88;;;;;;;27.80;40.04;101356.41;4989688;28;20217;-67
2021/08/08 08:29:12;;;;;;;8.23;3.92;;;;;;;27.78;40.88;101353.31;4997122;28;20243;-68
2021/08/08 08:31:38;;;;;;;10.30;4.57;;;;;;;27.73;40.67;101357.00;4996923;28;20218;-67
2021/08/08 08:34:04;;;;;;;8.73;4.00;;;;;;;27.75;39.56;101333.69;4989634;28;20210;-67
2021/08/08 08:36:29;;;;;;;8.33;4.27;;;;;;;28.16;39.15;101351.34;5004701;28;20710;-67
2021/08/08 08:38:55;;;;;;;13.60;4.47;;;;;;;27.88;38.58;101288.22;4995877;28;20189;-67
2021/08/08 08:41:27;;;;;;;9.93;4.25;;;;;;;27.90;38.01;101302.72;4989677;28;20182;-67
2021/08/08 08:43:55;;;;;;;8.63;3.78;;;;;;;28.47;37.65;101354.34;4989767;28;20170;-67
2021/08/08 08:46:22;;;;;;;7.43;3.60;;;;;;;28.54;37.40;101355.78;4990151;28;20700;-67
2021/08/08 08:48:51;;;;;;;8.75;3.60;;;;;;;28.36;37.62;101305.22;4987140;28;20276;-68
2021/08/08 08:51:18;;;;;;;8.52;3.58;;;;;;;28.99;37.33;101363.16;5001526;28;20200;-68
2021/08/08 08:53:45;;;;;;;9.35;3.70;;;;;;;29.18;35.75;101365.97;5009047;28;20209;-68
2021/08/08 08:56:11;;;;;;;5.95;3.65;;;;;;;29.00;35.27;101301.91;5008487;28;20216;-68
2021/08/08 08:58:37;;;;;;;6.75;3.78;;;;;;;29.55;35.17;101358.06;5003379;28;20640;-68
2021/08/08 09:01:02;;;;;;;8.68;3.67;;;;;;;29.21;35.51;101334.25;5002040;28;20209;-68
2021/08/08 09:03:28;;;;;;;5.70;3.40;;;;;;;29.42;34.83;101351.53;4999906;28;20872;-68
2021/08/08 09:05:54;;;;;;;10.40;3.78;;;;;;;29.54;34.75;101356.50;5007900;28;20281;-67
2021/08/08 09:08:19;;;;;;;8.83;3.80;;;;;;;29.57;34.92;101358.28;5008498;28;20233;-68
2021/08/08 09:10:45;;;;;;;9.88;3.70;;;;;;;29.73;34.69;101359.31;5003906;28;20189;-67
2021/08/08 09:13:11;;;;;;;10.15;3.45;;;;;;;29.84;34.20;101354.13;5000173;28;20201;-67
2021/08/08 09:15:44;;;;;;;11.52;4.10;;;;;;;30.04;33.71;101352.72;4984981;28;20256;-68
2021/08/08 09:18:24;;;;;;;8.52;3.90;;;;;;;30.06;33.56;101355.78;4988404;28;20186;-67
2021/08/08 09:20:51;;;;;;;7.20;3.58;;;;;;;29.96;34.16;101361.16;4988848;28;20571;-67
2021/08/08 09:23:17;;;;;;;7.35;4.18;;;;;;;29.96;33.85;101349.75;4989680;28;20240;-68
2021/08/08 09:25:54;;;;;;;8.82;3.97;;;;;;;30.22;32.96;101354.69;4992845;28;20290;-67
2021/08/08 09:28:27;;;;;;;9.63;3.30;;;;;;;30.12;32.45;101347.88;4981886;28;20235;-67
2021/08/08 09:30:53;;;;;;;11.05;3.92;;;;;;;30.21;32.24;101339.63;4988765;28;20175;-67
2021/08/08 09:33:18;;;;;;;8.68;3.30;;;;;;;30.40;32.77;101340.22;5003401;28;20264;-67
2021/08/08 09:35:44;;;;;;;7.90;3.97;;;;;;;30.15;32.47;101270.34;5008734;28;20195;-68
2021/08/08 09:38:11;;;;;;;6.78;3.40;;;;;;;30.57;32.89;101337.00;4995452;28;20190;-67
2021/08/08 09:40:40;;;;;;;9.52;3.88;;;;;;;30.44;32.29;101306.34;4988640;28;20182;-67
2021/08/08 09:43:07;;;;;;;5.88;3.47;;;;;;;30.69;31.82;101341.16;4988413;28;20188;-68
2021/08/08 09:45:40;;;;;;;10.60;4.05;;;;;;;30.71;31.40;101338.53;4989365;28;20368;-68
2021/08/08 09:48:09;;;;;;;8.80;3.70;;;;;;;30.68;31.49;101342.50;4989542;28;20554;-67
2021/08/08 09:50:35;;;;;;;8.30;4.03;;;;;;;30.74;31.51;101331.69;4986271;28;20645;-68
2021/08/08 09:53:03;;;;;;;6.55;3.53;;;;;;;31.09;31.57;101322.50;5004359;28;20216;-67
2021/08/08 09:55:34;;;;;;;9.55;3.45;;;;;;;31.23;31.52;101321.13;5008687;28;20190;-68
2021/08/08 09:58:05;;;;;;;9.63;3.58;;;;;;;31.03;30.99;101319.00;5009442;28;20213;-67
2021/08/08 10:00:36;;;;;;;5.32;3.60;;;;;;;31.17;31.19;101324.09;5012648;28;20640;-67
2021/08/08 10:03:05;;;;;;;6.47;3.55;;;;;;;31.29;30.43;101327.47;4997306;28;20652;-68
2021/08/08 10:05:38;;;;;;;5.80;3.40;;;;;;;31.24;30.11;101266.16;4989537;28;20193;-68
2021/08/08 10:08:08;;;;;;;8.45;3.70;;;;;;;31.67;30.27;101308.44;5010048;28;20309;-67
2021/08/08 10:10:36;;;;;;;6.63;3.42;;;;;;;31.55;30.41;101304.38;4993311;28;20254;-67
2021/08/08 10:13:07;;;;;;;8.68;3.33;;;;;;;31.41;29.93;101282.88;5016194;28;20233;-67
2021/08/08 10:15:36;;;;;;;7.45;3.53;;;;;;;31.64;nan;101298.88;5012572;28;20189;-67
2021/08/08 10:18:02;;;;;;;11.02;3.33;;;;;;;31.72;29.29;101296.84;5007995;28;20664;-68
2021/08/08 10:20:34;;;;;;;6.28;3.42;;;;;;;31.90;29.94;101295.06;5016374;28;20181;-68
2021/08/08 10:23:02;;;;;;;7.20;3.35;;;;;;;31.81;30.42;101287.75;5012145;28;20271;-68
2021/08/08 10:25:28;;;;;;;6.47;3.35;;;;;;;32.01;30.12;101292.63;5009248;28;20652;-67
2021/08/08 10:27:54;;;;;;;5.53;2.95;;;;;;;32.20;29.57;101284.47;5007548;28;20636;-67
2021/08/08 10:30:19;;;;;;;5.43;2.95;;;;;;;32.15;29.13;101284.66;5011384;28;20221;-67
2021/08/08 10:32:45;;;;;;;5.35;3.00;;;;;;;32.45;29.13;101288.41;5010921;28;20198;-67
2021/08/08 10:35:14;;;;;;;5.90;2.95;;;;;;;32.75;28.85;101277.00;5010221;28;20173;-68
2021/08/08 10:37:40;;;;;;;4.63;2.65;;;;;;;32.79;27.86;101251.59;5010729;28;20216;-68
2021/08/08 10:40:07;;;;;;;5.43;2.50;;;;;;;32.99;27.80;101255.59;5010639;28;20174;-68
2021/08/08 10:42:42;;;;;;;6.82;2.90;;;;;;;33.43;27.95;101268.44;5012191;28;20205;-68
2021/08/08 10:45:19;;;;;;;4.88;2.65;;;;;;;33.51;28.36;101244.09;5012280;28;20312;-67
2021/08/08 10:48:02;;;;;;;5.75;2.38;;;;;;;33.91;27.76;101273.69;5012482;28;20225;-68
2021/08/08 10:50:54;;;;;;;5.07;1.98;;;;;;;34.23;25.94;101270.09;5012773;28;20181;-68
2021/08/08 10:53:20;;;;;;;7.93;2.50;;;;;;;34.07;24.97;101257.91;5008808;28;20438;-68
2021/08/08 10:55:48;;;;;;;4.72;2.38;;;;;;;33.89;25.51;101213.13;5012006;28;20182;-68
2021/08/08 10:58:15;;;;;;;4.55;1.63;;;;;;;34.53;25.36;101259.22;5012791;28;20595;-69
2021/08/08 11:00:41;;;;;;;2.97;1.90;;;;;;;34.76;24.59;101256.19;5012398;28;20261;-68
2021/08/08 11:03:15;;;;;;;4.55;1.95;;;;;;;34.90;24.95;101246.69;5017335;28;20181;-68
2021/08/08 11:05:41;;;;;;;3.10;1.77;;;;;;;34.57;24.04;101204.91;5032176;28;20563;-68
2021/08/08 11:08:08;;;;;;;6.80;2.00;;;;;;;34.93;24.30;101248.41;5031518;28;20221;-68
2021/08/08 11:10:40;;;;;;;4.68;2.03;;;;;;;35.18;23.70;101239.72;5027877;28;20181;-68
2021/08/08 11:13:23;;;;;;;4.90;1.77;;;;;;;35.39;22.57;101237.22;5010718;28;20217;-68
2021/08/08 11:15:51;;;;;;;3.22;1.60;;;;;;;35.49;23.89;101235.19;4992600;28;20178;-68
2021/08/08 11:18:17;;;;;;;3.83;1.52;;;;;;;35.66;23.29;101226.53;4992949;28;20743;-68
2021/08/08 11:20:43;;;;;;;3.63;1.75;;;;;;;35.48;22.37;101190.44;4993151;28;20175;-67
2021/08/08 11:23:09;;;;;;;3.42;1.50;;;;;;;35.25;22.70;101210.09;4992893;28;20193;-68